sensor_id;sensor_type;location;lat;lon;timestamp;pressure;altitude;pressure_sealevel;temperature;humidity
61870;BME280;47810;42.264;23.826;2023-11-21T00:01:42;93558.94;;;4.99;73.34
61870;BME280;47810;42.264;23.826;2023-11-21T00:04:07;93564.56;;;5.08;73.66
61870;BME280;47810;42.264;23.826;2023-11-21T00:06:35;93560.03;;;5.12;73.99
61870;BME280;47810;42.264;23.826;2023-11-21T00:09:01;93565.25;;;5.12;73.55
61870;BME280;47810;42.264;23.826;2023-11-21T00:11:26;93562.94;;;5.06;74.21
61870;BME280;47810;42.264;23.826;2023-11-21T00:13:52;93570.53;;;4.93;74.27
61870;BME280;47810;42.264;23.826;2023-11-21T00:16:20;93566.41;;;5.06;74.67
61870;BME280;47810;42.264;23.826;2023-11-21T00:18:47;93574.94;;;4.93;75.17
61870;BME280;47810;42.264;23.826;2023-11-21T00:21:12;93576.09;;;4.68;75.36
61870;BME280;47810;42.264;23.826;2023-11-21T00:23:38;93579.06;;;4.79;75.90
61870;BME280;47810;42.264;23.826;2023-11-21T00:26:04;93570.56;;;4.74;75.49
61870;BME280;47810;42.264;23.826;2023-11-21T00:28:30;93567.34;;;4.69;76.15
61870;BME280;47810;42.264;23.826;2023-11-21T00:30:55;93575.66;;;4.77;76.00
61870;BME280;47810;42.264;23.826;2023-11-21T00:33:21;93569.59;;;4.58;76.05
61870;BME280;47810;42.264;23.826;2023-11-21T00:35:46;93565.72;;;4.48;76.43
61870;BME280;47810;42.264;23.826;2023-11-21T00:38:12;93569.88;;;4.52;76.48
61870;BME280;47810;42.264;23.826;2023-11-21T00:40:37;93568.25;;;4.49;76.08
61870;BME280;47810;42.264;23.826;2023-11-21T00:43:03;93565.78;;;4.46;76.25
61870;BME280;47810;42.264;23.826;2023-11-21T00:45:29;93573.56;;;4.48;76.39
61870;BME280;47810;42.264;23.826;2023-11-21T00:47:54;93571.19;;;4.43;76.43
61870;BME280;47810;42.264;23.826;2023-11-21T00:50:21;93578.66;;;4.32;76.89
61870;BME280;47810;42.264;23.826;2023-11-21T00:52:47;93580.50;;;4.49;76.42
61870;BME280;47810;42.264;23.826;2023-11-21T00:55:12;93576.25;;;4.65;75.58
61870;BME280;47810;42.264;23.826;2023-11-21T00:57:38;93571.22;;;4.79;74.90
61870;BME280;47810;42.264;23.826;2023-11-21T01:00:06;93573.84;;;4.60;75.39
61870;BME280;47810;42.264;23.826;2023-11-21T01:02:39;93577.25;;;4.43;75.73
61870;BME280;47810;42.264;23.826;2023-11-21T01:05:05;93575.78;;;4.38;76.23
61870;BME280;47810;42.264;23.826;2023-11-21T01:07:34;93585.66;;;4.31;76.35
61870;BME280;47810;42.264;23.826;2023-11-21T01:09:59;93576.13;;;4.30;76.43
61870;BME280;47810;42.264;23.826;2023-11-21T01:12:25;93574.97;;;4.55;75.90
61870;BME280;47810;42.264;23.826;2023-11-21T01:14:51;93572.72;;;4.47;76.24
61870;BME280;47810;42.264;23.826;2023-11-21T01:17:16;93562.41;;;4.63;76.08
61870;BME280;47810;42.264;23.826;2023-11-21T01:19:43;93567.38;;;4.50;75.62
61870;BME280;47810;42.264;23.826;2023-11-21T01:22:10;93563.13;;;4.48;75.99
61870;BME280;47810;42.264;23.826;2023-11-21T01:24:37;93568.50;;;4.44;76.06
61870;BME280;47810;42.264;23.826;2023-11-21T01:27:02;93562.97;;;4.51;76.16
61870;BME280;47810;42.264;23.826;2023-11-21T01:29:29;93563.25;;;4.63;76.03
61870;BME280;47810;42.264;23.826;2023-11-21T01:31:55;93559.16;;;4.58;75.55
61870;BME280;47810;42.264;23.826;2023-11-21T01:34:22;93554.91;;;4.36;76.74
61870;BME280;47810;42.264;23.826;2023-11-21T01:36:48;93552.03;;;4.42;75.89
61870;BME280;47810;42.264;23.826;2023-11-21T01:39:14;93550.97;;;4.47;76.06
61870;BME280;47810;42.264;23.826;2023-11-21T01:41:41;93543.72;;;4.34;76.25
61870;BME280;47810;42.264;23.826;2023-11-21T01:44:09;93537.56;;;4.35;76.13
61870;BME280;47810;42.264;23.826;2023-11-21T01:46:35;93530.63;;;4.53;75.68
61870;BME280;47810;42.264;23.826;2023-11-21T01:49:03;93532.19;;;4.38;76.38
61870;BME280;47810;42.264;23.826;2023-11-21T01:51:29;93535.88;;;4.34;76.57
61870;BME280;47810;42.264;23.826;2023-11-21T01:53:54;93541.09;;;4.15;77.22
61870;BME280;47810;42.264;23.826;2023-11-21T01:56:20;93541.94;;;4.35;76.77
61870;BME280;47810;42.264;23.826;2023-11-21T01:58:46;93538.75;;;4.28;76.54
61870;BME280;47810;42.264;23.826;2023-11-21T02:01:13;93538.53;;;4.52;76.21
61870;BME280;47810;42.264;23.826;2023-11-21T02:03:39;93538.53;;;4.33;76.31
61870;BME280;47810;42.264;23.826;2023-11-21T02:06:05;93538.34;;;4.37;77.04
61870;BME280;47810;42.264;23.826;2023-11-21T02:08:31;93528.78;;;4.36;76.89
61870;BME280;47810;42.264;23.826;2023-11-21T02:10:56;93527.88;;;4.18;77.03
61870;BME280;47810;42.264;23.826;2023-11-21T02:13:23;93527.59;;;4.06;77.79
61870;BME280;47810;42.264;23.826;2023-11-21T02:15:48;93537.34;;;4.02;77.67
61870;BME280;47810;42.264;23.826;2023-11-21T02:18:17;93535.00;;;3.96;77.90
61870;BME280;47810;42.264;23.826;2023-11-21T02:20:43;93540.25;;;4.15;77.57
61870;BME280;47810;42.264;23.826;2023-11-21T02:23:10;93532.47;;;4.32;76.75
61870;BME280;47810;42.264;23.826;2023-11-21T02:25:35;93536.84;;;4.32;77.53
61870;BME280;47810;42.264;23.826;2023-11-21T02:28:02;93540.53;;;4.09;77.33
61870;BME280;47810;42.264;23.826;2023-11-21T02:30:29;93531.81;;;3.89;79.04
61870;BME280;47810;42.264;23.826;2023-11-21T02:32:57;93525.59;;;3.73;79.35
61870;BME280;47810;42.264;23.826;2023-11-21T02:35:23;93521.97;;;3.76;79.47
61870;BME280;47810;42.264;23.826;2023-11-21T02:37:49;93507.25;;;3.74;79.69
61870;BME280;47810;42.264;23.826;2023-11-21T02:40:15;93517.22;;;3.85;79.52
61870;BME280;47810;42.264;23.826;2023-11-21T02:42:48;93521.38;;;3.89;79.43
61870;BME280;47810;42.264;23.826;2023-11-21T02:45:16;93516.13;;;3.70;79.58
61870;BME280;47810;42.264;23.826;2023-11-21T02:47:43;93518.56;;;3.55;80.49
61870;BME280;47810;42.264;23.826;2023-11-21T02:50:08;93525.66;;;3.71;80.49
61870;BME280;47810;42.264;23.826;2023-11-21T02:52:34;93538.13;;;3.85;79.60
61870;BME280;47810;42.264;23.826;2023-11-21T02:55:01;93532.84;;;3.66;79.76
61870;BME280;47810;42.264;23.826;2023-11-21T02:57:27;93527.19;;;3.57;80.39
61870;BME280;47810;42.264;23.826;2023-11-21T02:59:53;93527.59;;;3.47;80.41
61870;BME280;47810;42.264;23.826;2023-11-21T03:02:19;93530.47;;;3.41;80.91
61870;BME280;47810;42.264;23.826;2023-11-21T03:04:45;93529.50;;;3.44;81.18
61870;BME280;47810;42.264;23.826;2023-11-21T03:07:13;93527.47;;;3.50;80.76
61870;BME280;47810;42.264;23.826;2023-11-21T03:09:39;93518.31;;;3.61;80.66
61870;BME280;47810;42.264;23.826;2023-11-21T03:12:05;93524.16;;;3.66;80.81
61870;BME280;47810;42.264;23.826;2023-11-21T03:14:30;93533.00;;;3.63;80.89
61870;BME280;47810;42.264;23.826;2023-11-21T03:16:56;93529.75;;;3.77;80.99
61870;BME280;47810;42.264;23.826;2023-11-21T03:19:22;93537.50;;;3.60;80.69
61870;BME280;47810;42.264;23.826;2023-11-21T03:21:48;93542.44;;;3.66;81.11
61870;BME280;47810;42.264;23.826;2023-11-21T03:24:14;93546.03;;;3.63;81.46
61870;BME280;47810;42.264;23.826;2023-11-21T03:26:44;93553.47;;;3.91;81.20
61870;BME280;47810;42.264;23.826;2023-11-21T03:29:09;93554.94;;;3.78;80.94
61870;BME280;47810;42.264;23.826;2023-11-21T03:31:35;93539.38;;;3.95;81.02
61870;BME280;47810;42.264;23.826;2023-11-21T03:34:03;93526.53;;;3.91;80.39
61870;BME280;47810;42.264;23.826;2023-11-21T03:36:29;93513.13;;;3.80;80.68
61870;BME280;47810;42.264;23.826;2023-11-21T03:38:54;93508.59;;;3.83;80.59
61870;BME280;47810;42.264;23.826;2023-11-21T03:41:21;93501.81;;;4.17;80.26
61870;BME280;47810;42.264;23.826;2023-11-21T03:43:47;93517.50;;;4.17;79.16
61870;BME280;47810;42.264;23.826;2023-11-21T03:46:13;93522.84;;;4.14;79.47
61870;BME280;47810;42.264;23.826;2023-11-21T03:48:38;93514.59;;;4.23;79.03
61870;BME280;47810;42.264;23.826;2023-11-21T03:51:04;93515.38;;;4.25;78.94
61870;BME280;47810;42.264;23.826;2023-11-21T03:53:30;93524.47;;;3.97;78.83
61870;BME280;47810;42.264;23.826;2023-11-21T03:55:55;93530.13;;;3.88;79.19
61870;BME280;47810;42.264;23.826;2023-11-21T03:58:22;93534.31;;;4.30;78.61
61870;BME280;47810;42.264;23.826;2023-11-21T04:00:47;93531.75;;;4.10;78.89
61870;BME280;47810;42.264;23.826;2023-11-21T04:03:16;93539.03;;;4.03;79.62
61870;BME280;47810;42.264;23.826;2023-11-21T04:05:42;93540.22;;;3.96;80.17
61870;BME280;47810;42.264;23.826;2023-11-21T04:08:08;93545.69;;;3.71;80.91
61870;BME280;47810;42.264;23.826;2023-11-21T04:10:33;93537.78;;;3.54;81.33
61870;BME280;47810;42.264;23.826;2023-11-21T04:13:00;93545.81;;;3.68;81.53
61870;BME280;47810;42.264;23.826;2023-11-21T04:15:25;93527.63;;;3.66;81.09
61870;BME280;47810;42.264;23.826;2023-11-21T04:17:51;93528.75;;;3.61;81.58
61870;BME280;47810;42.264;23.826;2023-11-21T04:20:17;93531.00;;;3.68;81.37
61870;BME280;47810;42.264;23.826;2023-11-21T04:22:44;93531.03;;;3.87;80.52
61870;BME280;47810;42.264;23.826;2023-11-21T04:25:10;93520.88;;;3.81;80.19
61870;BME280;47810;42.264;23.826;2023-11-21T04:27:40;93512.91;;;3.84;80.84
61870;BME280;47810;42.264;23.826;2023-11-21T04:30:09;93511.13;;;3.85;81.03
61870;BME280;47810;42.264;23.826;2023-11-21T04:32:35;93514.16;;;3.76;81.45
61870;BME280;47810;42.264;23.826;2023-11-21T04:35:00;93508.00;;;3.58;82.25
61870;BME280;47810;42.264;23.826;2023-11-21T04:37:26;93499.94;;;3.62;82.13
61870;BME280;47810;42.264;23.826;2023-11-21T04:39:52;93506.97;;;3.81;82.15
61870;BME280;47810;42.264;23.826;2023-11-21T04:42:17;93510.13;;;3.68;81.88
61870;BME280;47810;42.264;23.826;2023-11-21T04:44:43;93512.03;;;3.65;81.89
61870;BME280;47810;42.264;23.826;2023-11-21T04:47:09;93520.47;;;3.51;81.98
61870;BME280;47810;42.264;23.826;2023-11-21T04:49:35;93528.91;;;3.77;81.68
61870;BME280;47810;42.264;23.826;2023-11-21T04:52:01;93515.06;;;3.74;81.72
61870;BME280;47810;42.264;23.826;2023-11-21T04:54:30;93515.44;;;3.67;81.71
61870;BME280;47810;42.264;23.826;2023-11-21T04:56:56;93511.81;;;3.50;82.49
61870;BME280;47810;42.264;23.826;2023-11-21T04:59:22;93511.94;;;3.47;82.75
61870;BME280;47810;42.264;23.826;2023-11-21T05:01:50;93511.72;;;3.52;82.49
61870;BME280;47810;42.264;23.826;2023-11-21T05:04:16;93516.28;;;3.67;82.03
61870;BME280;47810;42.264;23.826;2023-11-21T05:06:42;93519.38;;;3.57;81.79
61870;BME280;47810;42.264;23.826;2023-11-21T05:09:08;93511.75;;;3.71;81.74
61870;BME280;47810;42.264;23.826;2023-11-21T05:11:37;93517.50;;;3.79;80.94
61870;BME280;47810;42.264;23.826;2023-11-21T05:14:04;93517.66;;;3.56;81.63
61870;BME280;47810;42.264;23.826;2023-11-21T05:16:30;93523.25;;;3.67;81.54
61870;BME280;47810;42.264;23.826;2023-11-21T05:18:58;93518.63;;;3.53;81.67
61870;BME280;47810;42.264;23.826;2023-11-21T05:21:28;93526.31;;;3.56;81.74
61870;BME280;47810;42.264;23.826;2023-11-21T05:23:57;93520.75;;;3.45;81.41
61870;BME280;47810;42.264;23.826;2023-11-21T05:26:23;93515.44;;;3.46;81.93
61870;BME280;47810;42.264;23.826;2023-11-21T05:28:49;93512.06;;;3.44;82.02
61870;BME280;47810;42.264;23.826;2023-11-21T05:31:15;93511.41;;;3.39;82.27
61870;BME280;47810;42.264;23.826;2023-11-21T05:33:43;93514.47;;;3.49;82.34
61870;BME280;47810;42.264;23.826;2023-11-21T05:36:08;93520.28;;;3.35;83.01
61870;BME280;47810;42.264;23.826;2023-11-21T05:38:35;93521.09;;;3.37;82.64
61870;BME280;47810;42.264;23.826;2023-11-21T05:41:01;93522.38;;;3.47;82.64
61870;BME280;47810;42.264;23.826;2023-11-21T05:43:27;93520.78;;;3.43;82.46
61870;BME280;47810;42.264;23.826;2023-11-21T05:45:55;93517.13;;;3.68;81.96
61870;BME280;47810;42.264;23.826;2023-11-21T05:48:25;93522.84;;;3.76;81.57
61870;BME280;47810;42.264;23.826;2023-11-21T05:50:51;93519.19;;;3.80;81.74
61870;BME280;47810;42.264;23.826;2023-11-21T05:53:16;93530.59;;;3.78;81.47
61870;BME280;47810;42.264;23.826;2023-11-21T05:55:42;93524.97;;;3.87;81.51
61870;BME280;47810;42.264;23.826;2023-11-21T05:58:09;93530.06;;;3.90;81.32
61870;BME280;47810;42.264;23.826;2023-11-21T06:00:35;93527.84;;;3.81;81.42
61870;BME280;47810;42.264;23.826;2023-11-21T06:03:01;93521.97;;;3.76;82.11
61870;BME280;47810;42.264;23.826;2023-11-21T06:05:26;93525.41;;;3.96;81.20
61870;BME280;47810;42.264;23.826;2023-11-21T06:07:53;93528.91;;;3.77;81.55
61870;BME280;47810;42.264;23.826;2023-11-21T06:10:22;93541.03;;;3.78;81.85
61870;BME280;47810;42.264;23.826;2023-11-21T06:12:49;93541.75;;;3.81;82.25
61870;BME280;47810;42.264;23.826;2023-11-21T06:15:15;93539.13;;;4.02;81.60
61870;BME280;47810;42.264;23.826;2023-11-21T06:17:44;93540.53;;;4.09;81.57
61870;BME280;47810;42.264;23.826;2023-11-21T06:20:16;93540.66;;;4.06;81.77
61870;BME280;47810;42.264;23.826;2023-11-21T06:22:44;93539.19;;;4.19;82.08
61870;BME280;47810;42.264;23.826;2023-11-21T06:25:11;93537.56;;;4.35;81.85
61870;BME280;47810;42.264;23.826;2023-11-21T06:27:39;93529.28;;;4.26;82.16
61870;BME280;47810;42.264;23.826;2023-11-21T06:30:06;93528.78;;;4.36;83.00
61870;BME280;47810;42.264;23.826;2023-11-21T06:32:32;93524.69;;;4.50;83.32
61870;BME280;47810;42.264;23.826;2023-11-21T06:34:58;93527.38;;;4.48;82.86
61870;BME280;47810;42.264;23.826;2023-11-21T06:37:27;93530.63;;;4.34;83.06
61870;BME280;47810;42.264;23.826;2023-11-21T06:39:54;93528.63;;;4.39;83.17
61870;BME280;47810;42.264;23.826;2023-11-21T06:42:19;93531.31;;;4.57;81.98
61870;BME280;47810;42.264;23.826;2023-11-21T06:44:46;93528.31;;;4.64;81.69
61870;BME280;47810;42.264;23.826;2023-11-21T06:47:12;93537.50;;;4.73;81.06
61870;BME280;47810;42.264;23.826;2023-11-21T06:49:37;93539.19;;;4.74;80.65
61870;BME280;47810;42.264;23.826;2023-11-21T06:52:04;93543.03;;;4.67;80.57
61870;BME280;47810;42.264;23.826;2023-11-21T06:54:30;93542.59;;;4.76;80.41
61870;BME280;47810;42.264;23.826;2023-11-21T06:56:57;93546.59;;;4.83;79.65
61870;BME280;47810;42.264;23.826;2023-11-21T06:59:24;93551.03;;;4.81;79.80
61870;BME280;47810;42.264;23.826;2023-11-21T07:01:50;93550.59;;;4.90;79.47
61870;BME280;47810;42.264;23.826;2023-11-21T07:04:16;93543.25;;;4.99;78.62
61870;BME280;47810;42.264;23.826;2023-11-21T07:06:41;93551.91;;;4.82;79.22
61870;BME280;47810;42.264;23.826;2023-11-21T07:09:08;93552.75;;;4.82;79.59
61870;BME280;47810;42.264;23.826;2023-11-21T07:11:35;93545.78;;;5.00;80.11
61870;BME280;47810;42.264;23.826;2023-11-21T07:14:02;93553.31;;;4.89;80.29
61870;BME280;47810;42.264;23.826;2023-11-21T07:16:36;93550.59;;;4.73;81.26
61870;BME280;47810;42.264;23.826;2023-11-21T07:19:04;93552.75;;;4.82;80.81
61870;BME280;47810;42.264;23.826;2023-11-21T07:21:33;93552.31;;;4.92;81.07
61870;BME280;47810;42.264;23.826;2023-11-21T07:24:02;93548.19;;;5.05;80.95
61870;BME280;47810;42.264;23.826;2023-11-21T07:26:28;93547.28;;;5.23;80.65
61870;BME280;47810;42.264;23.826;2023-11-21T07:28:54;93545.19;;;5.30;80.65
61870;BME280;47810;42.264;23.826;2023-11-21T07:31:19;93541.41;;;5.35;80.59
61870;BME280;47810;42.264;23.826;2023-11-21T07:33:45;93547.66;;;5.33;80.44
61870;BME280;47810;42.264;23.826;2023-11-21T07:36:14;93542.88;;;5.41;80.57
61870;BME280;47810;42.264;23.826;2023-11-21T07:38:41;93552.78;;;5.52;79.78
61870;BME280;47810;42.264;23.826;2023-11-21T07:41:08;93537.91;;;5.70;78.93
61870;BME280;47810;42.264;23.826;2023-11-21T07:43:35;93544.31;;;5.81;78.81
61870;BME280;47810;42.264;23.826;2023-11-21T07:46:03;93544.91;;;5.87;78.77
61870;BME280;47810;42.264;23.826;2023-11-21T07:48:29;93547.22;;;5.93;78.47
61870;BME280;47810;42.264;23.826;2023-11-21T07:50:55;93544.75;;;6.07;78.08
61870;BME280;47810;42.264;23.826;2023-11-21T07:53:21;93539.34;;;6.10;78.04
61870;BME280;47810;42.264;23.826;2023-11-21T07:55:56;93542.84;;;6.26;77.86
61870;BME280;47810;42.264;23.826;2023-11-21T07:58:22;93537.09;;;6.36;77.54
61870;BME280;47810;42.264;23.826;2023-11-21T08:00:50;93536.50;;;6.46;77.51
61870;BME280;47810;42.264;23.826;2023-11-21T08:03:16;93533.78;;;6.48;77.57
61870;BME280;47810;42.264;23.826;2023-11-21T08:05:43;93532.59;;;6.38;77.76
61870;BME280;47810;42.264;23.826;2023-11-21T08:08:08;93539.03;;;6.48;77.93
61870;BME280;47810;42.264;23.826;2023-11-21T08:10:34;93533.03;;;6.62;77.90
61870;BME280;47810;42.264;23.826;2023-11-21T08:13:01;93532.53;;;6.71;77.87
61870;BME280;47810;42.264;23.826;2023-11-21T08:15:27;93533.44;;;6.86;77.36
61870;BME280;47810;42.264;23.826;2023-11-21T08:17:53;93522.28;;;6.82;77.26
61870;BME280;47810;42.264;23.826;2023-11-21T08:20:19;93525.63;;;7.16;76.78
61870;BME280;47810;42.264;23.826;2023-11-21T08:22:45;93527.31;;;7.01;76.92
61870;BME280;47810;42.264;23.826;2023-11-21T08:25:12;93525.16;;;6.93;77.40
61870;BME280;47810;42.264;23.826;2023-11-21T08:27:38;93534.75;;;7.09;77.04
61870;BME280;47810;42.264;23.826;2023-11-21T08:30:05;93529.13;;;7.31;76.10
61870;BME280;47810;42.264;23.826;2023-11-21T08:32:32;93533.25;;;7.35;75.75
61870;BME280;47810;42.264;23.826;2023-11-21T08:35:00;93531.97;;;7.42;76.04
61870;BME280;47810;42.264;23.826;2023-11-21T08:37:26;93534.81;;;7.53;75.90
61870;BME280;47810;42.264;23.826;2023-11-21T08:39:52;93536.25;;;7.73;75.79
61870;BME280;47810;42.264;23.826;2023-11-21T08:42:18;93534.31;;;8.05;74.35
61870;BME280;47810;42.264;23.826;2023-11-21T08:44:44;93531.41;;;8.24;71.72
61870;BME280;47810;42.264;23.826;2023-11-21T08:47:09;93524.34;;;8.25;70.46
61870;BME280;47810;42.264;23.826;2023-11-21T08:49:35;93524.19;;;8.42;69.22
61870;BME280;47810;42.264;23.826;2023-11-21T08:52:01;93529.53;;;8.55;69.57
61870;BME280;47810;42.264;23.826;2023-11-21T08:54:27;93528.13;;;8.49;69.96
61870;BME280;47810;42.264;23.826;2023-11-21T08:56:53;93527.72;;;8.70;69.40
61870;BME280;47810;42.264;23.826;2023-11-21T08:59:21;93526.72;;;8.99;68.39
61870;BME280;47810;42.264;23.826;2023-11-21T09:01:47;93521.69;;;9.49;65.41
61870;BME280;47810;42.264;23.826;2023-11-21T09:04:13;93514.16;;;9.70;63.88
61870;BME280;47810;42.264;23.826;2023-11-21T09:06:43;93513.72;;;9.50;64.64
61870;BME280;47810;42.264;23.826;2023-11-21T09:09:08;93501.69;;;9.59;65.14
61870;BME280;47810;42.264;23.826;2023-11-21T09:11:35;93506.03;;;9.73;63.86
61870;BME280;47810;42.264;23.826;2023-11-21T09:14:03;93503.63;;;9.70;63.65
61870;BME280;47810;42.264;23.826;2023-11-21T09:16:31;93502.97;;;9.79;61.85
61870;BME280;47810;42.264;23.826;2023-11-21T09:18:57;93499.69;;;10.14;62.37
61870;BME280;47810;42.264;23.826;2023-11-21T09:21:23;93484.44;;;10.32;60.18
61870;BME280;47810;42.264;23.826;2023-11-21T09:23:50;93478.69;;;10.51;60.29
61870;BME280;47810;42.264;23.826;2023-11-21T09:26:15;93478.59;;;10.89;59.80
61870;BME280;47810;42.264;23.826;2023-11-21T09:28:43;93479.41;;;10.89;59.01
61870;BME280;47810;42.264;23.826;2023-11-21T09:31:11;93472.63;;;11.22;59.23
61870;BME280;47810;42.264;23.826;2023-11-21T09:33:38;93479.03;;;11.31;55.29
61870;BME280;47810;42.264;23.826;2023-11-21T09:36:04;93470.97;;;11.32;56.85
61870;BME280;47810;42.264;23.826;2023-11-21T09:38:30;93469.91;;;11.35;56.25
61870;BME280;47810;42.264;23.826;2023-11-21T09:40:57;93472.59;;;11.46;55.83
61870;BME280;47810;42.264;23.826;2023-11-21T09:43:23;93468.22;;;11.34;56.38
61870;BME280;47810;42.264;23.826;2023-11-21T09:45:56;93470.72;;;11.71;57.03
61870;BME280;47810;42.264;23.826;2023-11-21T09:48:24;93470.72;;;12.06;55.09
61870;BME280;47810;42.264;23.826;2023-11-21T09:50:51;93468.34;;;12.37;54.26
61870;BME280;47810;42.264;23.826;2023-11-21T09:53:20;93465.66;;;12.48;51.28
61870;BME280;47810;42.264;23.826;2023-11-21T09:55:48;93457.00;;;12.68;53.49
61870;BME280;47810;42.264;23.826;2023-11-21T09:58:15;93447.28;;;13.01;52.41
61870;BME280;47810;42.264;23.826;2023-11-21T10:00:41;93437.38;;;13.14;51.54
61870;BME280;47810;42.264;23.826;2023-11-21T10:03:07;93438.44;;;13.55;51.69
61870;BME280;47810;42.264;23.826;2023-11-21T10:05:34;93417.59;;;13.71;51.94
61870;BME280;47810;42.264;23.826;2023-11-21T10:08:00;93386.53;;;13.62;48.16
61870;BME280;47810;42.264;23.826;2023-11-21T10:10:26;93370.16;;;13.57;48.08
61870;BME280;47810;42.264;23.826;2023-11-21T10:12:57;93367.50;;;13.57;50.21
61870;BME280;47810;42.264;23.826;2023-11-21T10:15:27;93361.00;;;13.61;49.44
61870;BME280;47810;42.264;23.826;2023-11-21T10:17:54;93351.41;;;13.49;50.29
61870;BME280;47810;42.264;23.826;2023-11-21T10:20:22;93350.28;;;13.42;50.55
61870;BME280;47810;42.264;23.826;2023-11-21T10:22:49;93350.78;;;13.36;50.02
61870;BME280;47810;42.264;23.826;2023-11-21T10:25:16;93332.00;;;13.27;50.54
61870;BME280;47810;42.264;23.826;2023-11-21T10:27:48;93321.81;;;13.12;50.64
61870;BME280;47810;42.264;23.826;2023-11-21T10:30:16;93322.06;;;12.88;50.69
61870;BME280;47810;42.264;23.826;2023-11-21T10:32:43;93320.44;;;12.75;51.32
61870;BME280;47810;42.264;23.826;2023-11-21T10:35:09;93311.06;;;12.71;51.56
61870;BME280;47810;42.264;23.826;2023-11-21T10:37:41;93313.09;;;12.68;51.54
61870;BME280;47810;42.264;23.826;2023-11-21T10:40:11;93308.28;;;12.73;51.25
61870;BME280;47810;42.264;23.826;2023-11-21T10:42:40;93312.34;;;12.77;51.22
61870;BME280;47810;42.264;23.826;2023-11-21T10:45:07;93311.44;;;12.67;50.47
61870;BME280;47810;42.264;23.826;2023-11-21T10:47:44;93308.81;;;12.88;51.02
61870;BME280;47810;42.264;23.826;2023-11-21T10:50:09;93322.50;;;12.93;50.11
61870;BME280;47810;42.264;23.826;2023-11-21T10:52:41;93315.53;;;12.92;49.65
61870;BME280;47810;42.264;23.826;2023-11-21T10:55:18;93310.81;;;13.27;50.36
61870;BME280;47810;42.264;23.826;2023-11-21T10:57:49;93301.31;;;13.86;47.51
61870;BME280;47810;42.264;23.826;2023-11-21T11:00:16;93297.28;;;14.23;47.81
61870;BME280;47810;42.264;23.826;2023-11-21T11:02:42;93308.34;;;14.47;45.51
61870;BME280;47810;42.264;23.826;2023-11-21T11:05:09;93298.56;;;14.48;46.51
61870;BME280;47810;42.264;23.826;2023-11-21T11:07:37;93298.22;;;14.72;44.83
61870;BME280;47810;42.264;23.826;2023-11-21T11:10:05;93302.84;;;14.79;43.90
61870;BME280;47810;42.264;23.826;2023-11-21T11:12:33;93286.88;;;14.70;43.60
61870;BME280;47810;42.264;23.826;2023-11-21T11:15:01;93289.09;;;14.45;44.70
61870;BME280;47810;42.264;23.826;2023-11-21T11:17:28;93303.13;;;14.16;44.62
61870;BME280;47810;42.264;23.826;2023-11-21T11:19:55;93305.47;;;14.00;45.97
61870;BME280;47810;42.264;23.826;2023-11-21T11:22:29;93303.00;;;13.78;46.27
61870;BME280;47810;42.264;23.826;2023-11-21T11:31:03;93320.47;;;13.17;48.87
61870;BME280;47810;42.264;23.826;2023-11-21T11:38:12;93336.97;;;13.21;47.91
61870;BME280;47810;42.264;23.826;2023-11-21T11:40:39;93341.31;;;12.90;49.19
61870;BME280;47810;42.264;23.826;2023-11-21T11:43:06;93346.97;;;13.17;49.38
61870;BME280;47810;42.264;23.826;2023-11-21T11:45:33;93346.72;;;13.20;49.87
61870;BME280;47810;42.264;23.826;2023-11-21T11:47:59;93344.22;;;12.87;50.29
61870;BME280;47810;42.264;23.826;2023-11-21T11:50:25;93334.09;;;12.92;52.31
61870;BME280;47810;42.264;23.826;2023-11-21T11:52:52;93309.41;;;13.12;52.73
61870;BME280;47810;42.264;23.826;2023-11-21T11:55:21;93305.19;;;13.10;53.41
61870;BME280;47810;42.264;23.826;2023-11-21T11:57:48;93302.56;;;13.10;50.63
61870;BME280;47810;42.264;23.826;2023-11-21T12:00:18;93306.38;;;12.96;52.22
61870;BME280;47810;42.264;23.826;2023-11-21T12:02:49;93291.56;;;13.14;52.28
61870;BME280;47810;42.264;23.826;2023-11-21T12:05:15;93274.91;;;13.23;53.77
61870;BME280;47810;42.264;23.826;2023-11-21T12:07:48;93242.22;;;13.44;51.31
61870;BME280;47810;42.264;23.826;2023-11-21T12:10:15;93223.50;;;13.36;50.29
61870;BME280;47810;42.264;23.826;2023-11-21T12:12:43;93234.06;;;13.26;51.41
61870;BME280;47810;42.264;23.826;2023-11-21T12:15:10;93251.28;;;13.20;50.42
61870;BME280;47810;42.264;23.826;2023-11-21T12:17:37;93252.97;;;13.21;50.40
61870;BME280;47810;42.264;23.826;2023-11-21T12:20:04;93244.53;;;13.27;51.04
61870;BME280;47810;42.264;23.826;2023-11-21T12:22:31;93236.31;;;13.31;50.64
61870;BME280;47810;42.264;23.826;2023-11-21T12:24:59;93239.94;;;13.30;50.80
61870;BME280;47810;42.264;23.826;2023-11-21T12:27:24;93247.06;;;13.29;50.07
61870;BME280;47810;42.264;23.826;2023-11-21T12:29:50;93249.16;;;13.14;49.75
61870;BME280;47810;42.264;23.826;2023-11-21T12:32:16;93245.69;;;12.93;50.49
61870;BME280;47810;42.264;23.826;2023-11-21T12:34:43;93248.50;;;12.59;51.43
61870;BME280;47810;42.264;23.826;2023-11-21T12:37:10;93251.41;;;12.56;51.52
61870;BME280;47810;42.264;23.826;2023-11-21T12:39:35;93248.00;;;12.65;51.49
61870;BME280;47810;42.264;23.826;2023-11-21T12:42:01;93255.63;;;12.58;51.87
61870;BME280;47810;42.264;23.826;2023-11-21T12:44:27;93248.03;;;12.54;52.25
61870;BME280;47810;42.264;23.826;2023-11-21T12:46:54;93260.75;;;12.71;51.14
61870;BME280;47810;42.264;23.826;2023-11-21T12:49:20;93260.78;;;12.60;51.06
61870;BME280;47810;42.264;23.826;2023-11-21T12:51:47;93270.13;;;12.64;50.00
61870;BME280;47810;42.264;23.826;2023-11-21T12:54:13;93273.09;;;12.50;51.65
61870;BME280;47810;42.264;23.826;2023-11-21T12:56:39;93272.28;;;12.38;51.07
61870;BME280;47810;42.264;23.826;2023-11-21T12:59:05;93277.97;;;12.33;51.47
61870;BME280;47810;42.264;23.826;2023-11-21T13:01:31;93273.19;;;12.27;51.12
61870;BME280;47810;42.264;23.826;2023-11-21T13:03:57;93259.09;;;12.27;51.71
61870;BME280;47810;42.264;23.826;2023-11-21T13:06:23;93268.56;;;12.41;51.90